Terminal Aerodrome Forecast
Issued by NWS

Home | Current Version | Previous Version | Text Only | Print | Product List | Glossary On
Versions: 1 2 3 4 5 6 7 8 9 10 11 12
635
FTUS46 KSEW 282334
TAFHQM
TAF
KHQM 282334Z 2900/2924 27012KT P6SM SCT030
     FM290300 27007KT P6SM SCT012 BKN020
     FM291200 22004KT P6SM -SHRA SCT006 OVC012
     FM292100 26014G20KT P6SM SCT025
      AMD NOT SKED=

USA.gov is the U.S. government's official web portal to all federal, state and local government web resources and services.